createdAt,value
2019-05-20T00:03:17.714Z,25.02
2019-05-20T00:06:40.878Z,23.30
2019-05-20T00:10:05.096Z,26.25
2019-05-20T00:13:28.609Z,26.07
2019-05-20T00:16:51.702Z,25.10
2019-05-20T00:20:14.787Z,25.95
2019-05-20T00:23:37.845Z,26.42
2019-05-20T00:27:01.077Z,27.22
2019-05-20T00:30:24.231Z,30.65
2019-05-20T00:33:47.642Z,31.57
2019-05-20T00:37:12.279Z,30.30
2019-05-20T00:40:35.426Z,32.47
2019-05-20T00:43:58.839Z,35.20
2019-05-20T00:47:21.908Z,34.53
2019-05-20T00:50:45.002Z,37.60
2019-05-20T00:54:08.296Z,39.78
2019-05-20T00:57:31.682Z,37.10
2019-05-20T01:00:54.761Z,35.68
2019-05-20T01:04:17.865Z,37.50
2019-05-20T01:07:41.276Z,37.67
2019-05-20T01:11:04.371Z,40.90
2019-05-20T01:14:27.560Z,43.92
2019-05-20T01:17:50.950Z,40.83
2019-05-20T01:21:14.060Z,45.95
2019-05-20T01:24:37.143Z,45.15
2019-05-20T01:28:00.619Z,42.10
2019-05-20T01:31:23.786Z,41.20
2019-05-20T01:34:46.983Z,43.78
2019-05-20T01:38:10.397Z,42.05
2019-05-20T01:41:34.671Z,43.83
2019-05-20T01:44:57.728Z,43.73
2019-05-20T01:48:21.827Z,44.85
2019-05-20T01:52:18.201Z,42.00
2019-05-20T01:55:41.310Z,44.80
2019-05-20T01:59:04.431Z,40.80
2019-05-20T02:02:27.648Z,41.05
2019-05-20T02:05:51.054Z,40.15
2019-05-20T02:09:15.389Z,40.08
2019-05-20T02:12:38.466Z,40.38
2019-05-20T02:16:05.534Z,38.45
2019-05-20T02:19:28.758Z,37.75
2019-05-20T02:22:54.227Z,39.20
2019-05-20T02:26:17.336Z,39.73
2019-05-20T02:29:40.452Z,40.05
2019-05-20T02:33:03.706Z,36.38
2019-05-20T02:36:26.792Z,39.48
2019-05-20T02:39:49.958Z,35.75
2019-05-20T02:43:13.048Z,37.93
2019-05-20T02:46:36.263Z,36.33
2019-05-20T02:49:59.400Z,37.75
2019-05-20T02:53:22.507Z,37.28
2019-05-20T02:56:45.690Z,37.53
2019-05-20T03:00:09.178Z,37.23
2019-05-20T03:03:32.247Z,35.10
2019-05-20T03:06:55.349Z,35.45
2019-05-20T03:10:18.424Z,36.15
2019-05-20T03:13:41.522Z,36.17
2019-05-20T03:17:04.666Z,36.03
2019-05-20T03:20:27.781Z,37.53
2019-05-20T03:23:50.865Z,36.10
2019-05-20T03:27:13.956Z,36.28
2019-05-20T03:30:38.044Z,36.80
2019-05-20T03:34:01.195Z,35.48
2019-05-20T03:37:24.425Z,35.28
2019-05-20T03:40:47.710Z,38.02
2019-05-20T03:44:10.855Z,37.08
2019-05-20T03:47:33.961Z,37.08
2019-05-20T03:50:57.123Z,38.23
2019-05-20T03:54:20.237Z,37.75
2019-05-20T03:57:43.371Z,34.20
2019-05-20T04:01:06.468Z,37.28
2019-05-20T04:04:29.555Z,37.75
2019-05-20T04:07:52.709Z,37.13
2019-05-20T04:11:16.051Z,37.25
2019-05-20T04:14:39.232Z,36.55
2019-05-20T04:18:02.741Z,39.65
2019-05-20T04:21:26.302Z,34.13
2019-05-20T04:24:49.575Z,36.30
2019-05-20T04:28:12.800Z,38.08
2019-05-20T04:31:36.240Z,36.03
2019-05-20T04:35:19.812Z,37.67
2019-05-20T04:38:26.084Z,35.43
2019-05-20T04:41:49.383Z,35.85
2019-05-20T04:45:13.077Z,37.10
2019-05-20T04:48:36.234Z,37.13
2019-05-20T04:51:59.390Z,35.33
2019-05-20T04:55:22.574Z,36.40
2019-05-20T04:58:45.665Z,37.23
2019-05-20T05:02:08.987Z,34.40
2019-05-20T05:05:37.615Z,34.18
2019-05-20T05:08:57.004Z,35.85
2019-05-20T05:12:33.731Z,32.33
2019-05-20T05:15:57.334Z,33.33
2019-05-20T05:19:20.768Z,33.90
2019-05-20T05:22:44.009Z,33.00
2019-05-20T05:26:07.086Z,33.80
2019-05-20T05:29:33.088Z,34.45
2019-05-20T05:32:59.877Z,29.95
2019-05-20T05:36:23.025Z,33.42
2019-05-20T05:39:46.404Z,31.35
2019-05-20T05:43:09.590Z,33.38
2019-05-20T05:46:32.635Z,33.30
2019-05-20T05:49:55.763Z,29.10
2019-05-20T05:53:18.936Z,30.32
2019-05-20T05:56:42.055Z,28.67
2019-05-20T06:00:10.213Z,30.27
2019-05-20T06:03:33.617Z,28.50
2019-05-20T06:06:56.876Z,30.40
2019-05-20T06:10:21.540Z,32.08
2019-05-20T06:13:44.588Z,30.17
2019-05-20T06:17:07.645Z,29.92
2019-05-20T06:20:30.745Z,29.77
2019-05-20T06:23:54.328Z,30.77
2019-05-20T06:27:17.776Z,30.70
2019-05-20T06:30:43.998Z,30.77
2019-05-20T06:34:07.157Z,32.05
2019-05-20T06:37:34.340Z,31.42
2019-05-20T06:40:57.570Z,30.80
2019-05-20T06:44:20.897Z,33.10
2019-05-20T06:47:45.036Z,32.20
2019-05-20T06:51:08.294Z,27.65
2019-05-20T06:54:34.677Z,27.95
2019-05-20T06:57:57.909Z,28.47
2019-05-20T07:01:21.085Z,28.12
2019-05-20T07:04:44.334Z,26.97
2019-05-20T07:08:08.123Z,28.73
2019-05-20T07:11:31.529Z,28.55
2019-05-20T07:14:54.794Z,29.00
2019-05-20T07:18:18.070Z,27.93
2019-05-20T07:21:41.704Z,26.97
2019-05-20T07:25:05.171Z,25.17
2019-05-20T07:28:28.607Z,24.65
2019-05-20T07:31:51.785Z,28.40
2019-05-20T07:35:28.887Z,26.82
2019-05-20T07:38:40.389Z,27.20
2019-05-20T07:42:04.829Z,26.45
2019-05-20T07:45:30.326Z,27.80
2019-05-20T07:48:53.710Z,28.98
2019-05-20T07:52:18.130Z,26.60
2019-05-20T07:55:53.714Z,27.50
2019-05-20T07:59:21.688Z,27.48
2019-05-20T08:02:44.728Z,26.87
2019-05-20T08:06:08.330Z,26.25
2019-05-20T08:09:31.460Z,26.33
2019-05-20T08:12:54.507Z,25.10
2019-05-20T08:16:18.670Z,27.05
2019-05-20T08:19:41.983Z,26.73
2019-05-20T08:23:05.242Z,27.05
2019-05-20T08:26:28.454Z,27.48
2019-05-20T08:29:51.785Z,28.40
2019-05-20T08:33:14.805Z,27.15
2019-05-20T08:36:38.090Z,25.82
2019-05-20T08:40:01.415Z,26.30
2019-05-20T08:43:24.875Z,24.77
2019-05-20T08:46:48.127Z,27.95
2019-05-20T08:50:15.916Z,27.27
2019-05-20T08:53:36.220Z,27.15
2019-05-20T08:56:59.285Z,28.20
2019-05-20T09:00:24.667Z,28.55
2019-05-20T09:03:48.198Z,26.15
2019-05-20T09:07:11.422Z,26.37
2019-05-20T09:10:35.184Z,25.27
2019-05-20T09:13:58.215Z,27.20
2019-05-20T09:17:21.507Z,25.57
2019-05-20T09:20:44.884Z,26.25
2019-05-20T09:24:07.973Z,24.95
2019-05-20T09:27:31.282Z,27.07
2019-05-20T09:30:56.636Z,26.55
2019-05-20T09:34:19.898Z,25.97
2019-05-20T09:37:43.063Z,28.83
2019-05-20T09:41:06.487Z,27.90
2019-05-20T09:44:29.725Z,30.52
2019-05-20T09:47:53.125Z,31.77
2019-05-20T09:51:16.486Z,31.30
2019-05-20T09:54:39.798Z,31.77
2019-05-20T09:58:03.134Z,32.03
2019-05-20T10:01:26.380Z,31.42
2019-05-20T10:04:49.555Z,32.58
2019-05-20T10:08:12.680Z,32.83
2019-05-20T10:11:35.872Z,35.45
2019-05-20T10:14:59.258Z,33.35
2019-05-20T10:18:36.901Z,33.95
2019-05-20T10:21:47.478Z,32.15
2019-05-20T10:25:11.168Z,33.05
2019-05-20T10:28:34.240Z,31.87
2019-05-20T10:31:57.364Z,32.42
2019-05-20T10:35:20.678Z,31.70
2019-05-20T10:38:58.048Z,32.73
2019-05-20T10:42:09.384Z,33.35
2019-05-20T10:45:33.661Z,34.90
2019-05-20T10:48:57.049Z,32.08
2019-05-20T10:52:20.543Z,35.35
2019-05-20T10:55:43.901Z,36.75
2019-05-20T10:59:11.760Z,39.65
2019-05-20T11:02:32.192Z,37.93
2019-05-20T11:05:55.321Z,39.67
2019-05-20T11:09:18.662Z,37.08
2019-05-20T11:12:44.688Z,39.53
2019-05-20T11:16:08.644Z,41.23
2019-05-20T11:19:31.886Z,36.30
2019-05-20T11:22:54.983Z,39.15
2019-05-20T11:26:18.942Z,36.88
2019-05-20T11:29:42.346Z,40.10
2019-05-20T11:33:05.481Z,42.13
2019-05-20T11:36:28.712Z,41.08
2019-05-20T11:39:52.179Z,39.85
2019-05-20T11:43:15.310Z,41.33
2019-05-20T11:46:38.555Z,40.63
2019-05-20T11:50:01.715Z,38.10
2019-05-20T11:53:25.012Z,44.38
2019-05-20T11:56:48.193Z,45.33
2019-05-20T12:00:11.785Z,46.90
2019-05-20T12:03:34.905Z,46.45
2019-05-20T12:06:58.077Z,46.00
2019-05-20T12:10:23.196Z,46.30
2019-05-20T12:13:46.279Z,46.85
2019-05-20T12:17:09.362Z,43.33
2019-05-20T12:20:32.491Z,41.73
2019-05-20T12:23:55.858Z,40.05
2019-05-20T12:27:19.092Z,40.70
2019-05-20T12:30:42.493Z,35.78
2019-05-20T12:34:05.639Z,37.48
2019-05-20T12:37:29.194Z,37.40
2019-05-20T12:40:53.471Z,34.98
2019-05-20T12:44:16.598Z,33.55
2019-05-20T12:47:42.488Z,38.30
2019-05-20T12:51:05.661Z,39.23
2019-05-20T12:54:28.731Z,39.10
2019-05-20T12:57:51.814Z,35.90
2019-05-20T13:01:14.924Z,39.98
2019-05-20T13:04:38.021Z,38.15
2019-05-20T13:08:01.225Z,38.88
2019-05-20T13:11:24.377Z,40.70
2019-05-20T13:14:47.554Z,38.20
2019-05-20T13:18:10.774Z,41.00
2019-05-20T13:21:34.038Z,37.42
2019-05-20T13:24:57.212Z,39.75
2019-05-20T13:28:20.604Z,46.63
2019-05-20T13:31:43.726Z,48.25
2019-05-20T13:35:07.000Z,50.10
2019-05-20T13:38:31.385Z,48.17
2019-05-20T13:41:54.617Z,47.27
2019-05-20T13:45:17.872Z,46.85
2019-05-20T13:48:41.075Z,47.50
2019-05-20T13:52:04.243Z,48.42
2019-05-20T13:55:33.233Z,47.70
2019-05-20T13:58:56.541Z,48.48
2019-05-20T14:02:19.682Z,47.05
2019-05-20T14:05:42.976Z,51.10
2019-05-20T14:09:07.585Z,48.02
2019-05-20T14:12:31.238Z,47.23
2019-05-20T14:15:54.621Z,42.43
2019-05-20T14:19:17.716Z,46.30
2019-05-20T14:22:40.937Z,47.83
2019-05-20T14:26:04.142Z,46.68
2019-05-20T14:29:27.368Z,43.52
2019-05-20T14:32:50.785Z,45.55
2019-05-20T14:36:37.262Z,43.83
2019-05-20T14:39:38.997Z,41.53
2019-05-20T14:43:02.286Z,41.02
2019-05-20T14:46:25.480Z,41.85
2019-05-20T14:49:48.614Z,39.23
2019-05-20T14:53:11.715Z,39.55
2019-05-20T14:56:34.792Z,36.33
2019-05-20T14:59:57.916Z,40.83
2019-05-20T15:03:21.283Z,38.60
2019-05-20T15:06:44.528Z,40.15
2019-05-20T15:10:08.369Z,38.42
2019-05-20T15:13:32.476Z,43.02
2019-05-20T15:16:55.851Z,41.42
2019-05-20T15:20:19.210Z,40.85
2019-05-20T15:23:42.382Z,43.33
2019-05-20T15:27:05.565Z,44.45
2019-05-20T15:30:28.689Z,41.77
2019-05-20T15:33:51.850Z,41.55
2019-05-20T15:37:15.174Z,46.00
2019-05-20T15:40:38.373Z,44.58
2019-05-20T15:44:01.478Z,43.33
2019-05-20T15:47:24.735Z,41.50
2019-05-20T15:50:47.817Z,43.05
2019-05-20T15:54:10.961Z,42.53
2019-05-20T15:57:34.036Z,42.48
2019-05-20T16:00:57.096Z,42.05
2019-05-20T16:04:20.273Z,41.33
2019-05-20T16:07:43.421Z,39.78
2019-05-20T16:11:07.248Z,41.88
2019-05-20T16:14:30.557Z,41.37
2019-05-20T16:17:53.769Z,43.05
2019-05-20T16:21:16.936Z,43.15
2019-05-20T16:24:40.833Z,41.85
2019-05-20T16:28:04.272Z,40.73
2019-05-20T16:31:28.013Z,37.67
2019-05-20T16:34:51.156Z,39.88
2019-05-20T16:38:14.420Z,37.48
2019-05-20T16:41:37.515Z,41.28
2019-05-20T16:45:00.740Z,39.63
2019-05-20T16:48:24.624Z,37.93
2019-05-20T16:51:47.786Z,37.90
2019-05-20T16:55:10.996Z,38.35
2019-05-20T16:58:34.283Z,39.73
2019-05-20T17:01:57.335Z,38.33
2019-05-20T17:05:20.822Z,37.63
2019-05-20T17:08:44.016Z,36.90
2019-05-20T17:12:07.145Z,36.25
2019-05-20T17:15:30.299Z,37.98
2019-05-20T17:19:28.796Z,36.13
2019-05-20T17:22:52.974Z,37.88
2019-05-20T17:26:16.170Z,37.30
2019-05-20T17:29:39.411Z,39.10
2019-05-20T17:33:04.689Z,37.67
2019-05-20T17:36:27.914Z,34.53
2019-05-20T17:39:51.063Z,36.65
2019-05-20T17:43:14.299Z,34.55
2019-05-20T17:46:37.519Z,34.67
2019-05-20T17:50:01.196Z,35.75
2019-05-20T17:53:24.417Z,35.95
2019-05-20T17:56:47.873Z,35.35
2019-05-20T18:00:16.863Z,34.10
2019-05-20T18:03:40.394Z,33.20
2019-05-20T18:07:03.596Z,32.75
2019-05-20T18:10:26.906Z,36.03
2019-05-20T18:13:51.281Z,33.05
2019-05-20T18:17:14.836Z,31.15
2019-05-20T18:20:38.911Z,30.45
2019-05-20T18:24:02.532Z,31.27
2019-05-20T18:27:26.375Z,33.38
2019-05-20T18:30:49.529Z,33.40
2019-05-20T18:34:13.808Z,33.65
2019-05-20T18:37:37.289Z,33.90
2019-05-20T18:41:00.927Z,32.70
2019-05-20T18:44:24.109Z,35.88
2019-05-20T18:47:47.362Z,34.88
2019-05-20T18:51:10.720Z,38.75
2019-05-20T18:54:34.561Z,37.17
2019-05-20T18:57:57.638Z,38.17
2019-05-20T19:01:21.657Z,40.15
2019-05-20T19:04:46.539Z,39.03
2019-05-20T19:08:09.749Z,42.35
2019-05-20T19:11:33.797Z,40.75
2019-05-20T19:14:58.160Z,39.33
2019-05-20T19:18:22.061Z,40.10
2019-05-20T19:21:52.048Z,40.12
2019-05-20T19:25:15.508Z,38.88
2019-05-20T19:28:38.925Z,38.95
2019-05-20T19:32:02.510Z,40.95
2019-05-20T19:35:26.933Z,39.92
2019-05-20T19:38:50.317Z,41.80
2019-05-20T19:42:13.994Z,43.17
2019-05-20T19:45:37.703Z,41.77
2019-05-20T19:49:01.013Z,41.20
2019-05-20T19:52:24.260Z,41.70
2019-05-20T19:55:47.548Z,43.75
2019-05-20T19:59:10.861Z,41.18
2019-05-20T20:02:34.591Z,39.48
2019-05-20T20:06:01.317Z,41.33
2019-05-20T20:09:26.239Z,42.83
2019-05-20T20:12:53.413Z,41.88
2019-05-20T20:16:18.086Z,42.58
2019-05-20T20:19:41.850Z,44.18
2019-05-20T20:23:05.396Z,45.52
2019-05-20T20:26:28.869Z,43.98
2019-05-20T20:29:51.945Z,45.28
2019-05-20T20:33:15.058Z,46.15
2019-05-20T20:36:38.527Z,46.37
2019-05-20T20:40:01.624Z,49.60
2019-05-20T20:43:24.855Z,48.05
2019-05-20T20:46:48.141Z,45.15
2019-05-20T20:50:11.930Z,47.53
2019-05-20T20:53:34.959Z,44.60
2019-05-20T20:56:58.114Z,48.38
2019-05-20T21:00:21.616Z,49.23
2019-05-20T21:03:44.703Z,44.53
2019-05-20T21:07:08.791Z,47.98
2019-05-20T21:10:31.965Z,45.25
2019-05-20T21:13:55.139Z,45.78
2019-05-20T21:17:18.408Z,42.60
2019-05-20T21:20:41.921Z,42.33
2019-05-20T21:24:04.987Z,38.73
2019-05-20T21:27:28.189Z,34.90
2019-05-20T21:30:51.567Z,32.80
2019-05-20T21:34:14.712Z,34.85
2019-05-20T21:37:37.874Z,33.78
2019-05-20T21:41:01.037Z,31.05
2019-05-20T21:44:24.155Z,31.12
2019-05-20T21:47:47.422Z,29.37
2019-05-20T21:51:10.786Z,30.85
2019-05-20T21:54:33.939Z,26.73
2019-05-20T21:57:57.187Z,27.87
2019-05-20T22:01:20.406Z,29.85
2019-05-20T22:04:43.956Z,29.45
2019-05-20T22:08:07.411Z,32.73
2019-05-20T22:11:30.583Z,31.85
2019-05-20T22:14:53.864Z,32.45
2019-05-20T22:18:17.028Z,31.23
2019-05-20T22:21:47.094Z,34.58
2019-05-20T22:25:10.291Z,33.30
2019-05-20T22:28:33.498Z,36.45
2019-05-20T22:31:56.605Z,35.85
2019-05-20T22:35:19.777Z,35.68
2019-05-20T22:38:42.902Z,35.45
2019-05-20T22:42:06.230Z,35.78
2019-05-20T22:45:29.447Z,33.53
2019-05-20T22:48:52.572Z,33.88
2019-05-20T22:52:15.680Z,33.85
2019-05-20T22:55:38.786Z,34.10
2019-05-20T22:59:01.943Z,34.55
2019-05-20T23:02:25.065Z,35.03
2019-05-20T23:05:48.173Z,30.50
2019-05-20T23:09:14.798Z,32.23
2019-05-20T23:12:36.664Z,31.33
2019-05-20T23:15:59.879Z,31.05
2019-05-20T23:19:22.980Z,32.33
2019-05-20T23:22:46.103Z,30.20
2019-05-20T23:26:09.220Z,30.68
2019-05-20T23:29:32.308Z,28.23
2019-05-20T23:32:55.446Z,28.98
2019-05-20T23:36:18.527Z,29.75
2019-05-20T23:39:41.903Z,30.25
2019-05-20T23:44:14.488Z,31.12
2019-05-20T23:52:37.699Z,27.05
2019-05-20T23:56:00.842Z,26.70
2019-05-20T23:59:23.940Z,26.70
